createdAt,value
2018-05-06T00:00:22.610Z,0.00
2018-05-06T00:01:22.609Z,0.00
2018-05-06T00:02:22.612Z,0.00
2018-05-06T00:03:22.611Z,0.00
2018-05-06T00:04:22.612Z,0.00
2018-05-06T00:05:22.610Z,0.00
2018-05-06T00:06:22.611Z,0.00
2018-05-06T00:07:22.611Z,0.00
2018-05-06T00:08:22.611Z,0.00
2018-05-06T00:09:22.610Z,0.00
2018-05-06T00:10:22.610Z,0.00
2018-05-06T00:11:22.610Z,0.00
2018-05-06T00:12:22.611Z,0.00
2018-05-06T00:13:22.609Z,0.00
2018-05-06T00:14:22.609Z,0.00
2018-05-06T00:15:22.610Z,0.00
2018-05-06T00:16:22.610Z,0.00
2018-05-06T00:17:22.617Z,0.00
2018-05-06T00:18:22.610Z,0.00
2018-05-06T00:19:22.610Z,0.00
2018-05-06T00:20:22.619Z,0.00
2018-05-06T00:21:22.609Z,0.00
2018-05-06T00:22:22.608Z,0.00
2018-05-06T00:23:22.609Z,0.00
2018-05-06T00:24:22.610Z,0.00
2018-05-06T00:25:22.607Z,0.00
2018-05-06T00:26:22.611Z,0.00
2018-05-06T00:27:22.608Z,0.00
2018-05-06T00:28:22.609Z,0.00
2018-05-06T00:30:22.620Z,0.00
2018-05-06T00:31:22.620Z,0.00
2018-05-06T00:32:22.621Z,0.00
2018-05-06T00:33:22.620Z,0.00
2018-05-06T00:34:22.621Z,0.00
2018-05-06T00:35:22.630Z,0.00
2018-05-06T00:36:22.620Z,0.00
2018-05-06T00:37:22.621Z,0.00
2018-05-06T00:38:22.621Z,0.00
2018-05-06T00:39:22.621Z,0.00
2018-05-06T00:40:22.622Z,0.00
2018-05-06T00:41:22.622Z,0.00
2018-05-06T00:42:22.623Z,0.00
2018-05-06T00:43:22.623Z,0.00
2018-05-06T00:44:22.623Z,0.00
2018-05-06T00:45:22.623Z,0.00
2018-05-06T00:46:22.640Z,0.00
2018-05-06T00:47:22.623Z,0.00
2018-05-06T00:48:22.625Z,0.00
2018-05-06T00:49:22.623Z,0.00
2018-05-06T00:50:22.624Z,0.00
2018-05-06T00:51:22.628Z,0.00
2018-05-06T00:52:22.627Z,0.00
2018-05-06T00:53:22.630Z,0.00
2018-05-06T00:54:22.625Z,0.00
2018-05-06T00:55:22.625Z,0.00
2018-05-06T00:56:22.626Z,0.00
2018-05-06T00:57:22.625Z,0.00
2018-05-06T00:58:22.626Z,0.00
2018-05-06T00:59:22.627Z,0.00
2018-05-06T01:00:22.627Z,0.00
2018-05-06T01:01:22.629Z,0.00
2018-05-06T01:02:22.627Z,0.00
2018-05-06T01:03:22.628Z,0.00
2018-05-06T01:04:22.629Z,0.00
2018-05-06T01:05:22.627Z,0.00
2018-05-06T01:06:22.629Z,0.00
2018-05-06T01:07:22.630Z,0.00
2018-05-06T01:08:22.635Z,0.00
2018-05-06T01:09:22.630Z,0.00
2018-05-06T01:10:22.631Z,0.00
2018-05-06T01:11:22.630Z,0.00
2018-05-06T01:12:22.635Z,0.00
2018-05-06T01:13:22.631Z,0.00
2018-05-06T01:14:22.631Z,0.00
2018-05-06T01:15:22.638Z,0.00
2018-05-06T01:16:22.632Z,0.00
2018-05-06T01:17:22.633Z,0.00
2018-05-06T01:18:22.639Z,0.00
2018-05-06T01:19:22.638Z,0.00
2018-05-06T01:20:22.633Z,0.00
2018-05-06T01:21:22.633Z,0.00
2018-05-06T01:22:22.632Z,0.00
2018-05-06T01:23:22.635Z,0.00
2018-05-06T01:24:22.635Z,0.00
2018-05-06T01:25:22.635Z,0.00
2018-05-06T01:26:22.633Z,0.00
2018-05-06T01:27:22.636Z,0.00
2018-05-06T01:28:22.637Z,0.00
2018-05-06T01:29:22.634Z,0.00
2018-05-06T01:30:22.636Z,0.00
2018-05-06T01:31:22.637Z,0.00
2018-05-06T01:32:22.637Z,0.00
2018-05-06T01:33:22.637Z,0.00
2018-05-06T01:34:22.636Z,0.00
2018-05-06T01:35:22.637Z,0.00
2018-05-06T01:36:22.639Z,0.00
2018-05-06T01:37:22.636Z,0.00
2018-05-06T01:38:22.638Z,0.00
2018-05-06T01:39:22.639Z,0.00
2018-05-06T01:40:22.639Z,0.00
2018-05-06T01:41:22.645Z,0.00
2018-05-06T01:42:22.637Z,0.00
2018-05-06T01:43:22.639Z,0.00
2018-05-06T01:44:22.638Z,0.00
2018-05-06T01:45:22.638Z,0.00
2018-05-06T01:46:22.638Z,0.00
2018-05-06T01:47:22.637Z,0.00
2018-05-06T01:48:22.637Z,0.00
2018-05-06T01:49:22.640Z,0.00
2018-05-06T01:50:22.637Z,0.00
2018-05-06T01:51:22.638Z,0.00
2018-05-06T01:52:22.639Z,0.00
2018-05-06T01:53:22.637Z,0.00
2018-05-06T01:54:22.636Z,0.00
2018-05-06T01:55:22.638Z,0.00
2018-05-06T01:56:22.636Z,0.00
2018-05-06T01:57:22.643Z,0.00
2018-05-06T01:58:22.636Z,0.00
2018-05-06T01:59:22.636Z,0.00
2018-05-06T02:00:22.638Z,0.00
2018-05-06T02:01:22.635Z,0.00
2018-05-06T02:02:22.635Z,0.00
2018-05-06T02:03:22.636Z,0.00
2018-05-06T02:04:22.636Z,0.00
2018-05-06T02:05:22.635Z,0.00
2018-05-06T02:06:22.636Z,0.00
2018-05-06T02:07:22.634Z,0.00
2018-05-06T02:08:22.634Z,0.00
2018-05-06T02:09:22.635Z,0.00
2018-05-06T02:10:22.634Z,0.00
2018-05-06T02:11:22.635Z,0.00
2018-05-06T02:12:22.634Z,0.00
2018-05-06T02:13:22.634Z,0.00
2018-05-06T02:14:22.634Z,0.00
2018-05-06T02:15:22.635Z,0.00
2018-05-06T02:16:22.635Z,0.00
2018-05-06T02:17:22.642Z,0.00
2018-05-06T02:18:22.639Z,0.00
2018-05-06T02:19:22.635Z,0.00
2018-05-06T02:20:22.635Z,0.00
2018-05-06T02:21:22.633Z,0.00
2018-05-06T02:22:22.633Z,0.00
2018-05-06T02:23:22.634Z,0.00
2018-05-06T02:24:22.634Z,0.00
2018-05-06T02:25:22.634Z,0.00
2018-05-06T02:26:22.633Z,0.00
2018-05-06T02:27:22.634Z,0.00
2018-05-06T02:28:22.634Z,0.00
2018-05-06T02:29:22.633Z,0.00
2018-05-06T02:30:22.634Z,0.00
2018-05-06T02:31:22.634Z,0.00
2018-05-06T02:32:22.633Z,0.00
2018-05-06T02:33:22.634Z,0.00
2018-05-06T02:34:22.634Z,0.00
2018-05-06T02:35:22.632Z,0.00
2018-05-06T02:36:22.633Z,0.00
2018-05-06T02:37:22.632Z,0.00
2018-05-06T02:38:22.632Z,0.00
2018-05-06T02:39:22.632Z,0.00
2018-05-06T02:40:22.633Z,0.00
2018-05-06T02:41:22.632Z,0.00
2018-05-06T02:42:22.630Z,0.00
2018-05-06T02:43:22.632Z,0.00
2018-05-06T02:44:22.631Z,0.00
2018-05-06T02:45:22.631Z,0.00
2018-05-06T02:46:22.629Z,0.00
2018-05-06T02:47:22.630Z,0.00
2018-05-06T02:48:22.630Z,0.00
2018-05-06T02:49:22.629Z,0.00
2018-05-06T02:50:22.632Z,0.00
2018-05-06T02:51:22.630Z,0.00
2018-05-06T02:52:22.629Z,0.00
2018-05-06T02:53:22.627Z,0.00
2018-05-06T02:54:22.628Z,0.00
2018-05-06T02:55:22.632Z,0.00
2018-05-06T02:56:22.628Z,0.00
2018-05-06T02:57:22.626Z,0.00
2018-05-06T02:58:22.626Z,0.00
2018-05-06T02:59:22.627Z,0.00
2018-05-06T03:00:22.630Z,0.00
2018-05-06T03:01:22.628Z,0.00
2018-05-06T03:02:22.627Z,0.00
2018-05-06T03:03:22.626Z,0.00
2018-05-06T03:04:22.625Z,0.00
2018-05-06T03:05:22.626Z,0.00
2018-05-06T03:06:22.626Z,0.00
2018-05-06T03:07:22.627Z,0.00
2018-05-06T03:08:22.626Z,0.00
2018-05-06T03:09:22.702Z,0.00
2018-05-06T03:10:22.626Z,0.00
2018-05-06T03:11:22.626Z,0.00
2018-05-06T03:12:22.624Z,0.00
2018-05-06T03:13:22.625Z,0.00
2018-05-06T03:14:22.625Z,0.00
2018-05-06T03:15:22.625Z,0.00
2018-05-06T03:16:22.626Z,0.00
2018-05-06T03:17:22.627Z,0.00
2018-05-06T03:18:22.626Z,0.00
2018-05-06T03:19:22.631Z,0.00
2018-05-06T03:20:22.625Z,0.00
2018-05-06T03:21:22.629Z,0.00
2018-05-06T03:22:22.625Z,0.00
2018-05-06T03:23:22.626Z,0.00
2018-05-06T03:24:22.627Z,0.00
2018-05-06T03:25:22.625Z,0.00
2018-05-06T03:26:22.626Z,0.00
2018-05-06T03:27:22.626Z,0.00
2018-05-06T03:28:22.626Z,0.00
2018-05-06T03:29:22.625Z,0.00
2018-05-06T03:30:22.627Z,0.00
2018-05-06T03:31:22.626Z,0.00
2018-05-06T03:32:22.631Z,0.00
2018-05-06T03:33:22.625Z,0.00
2018-05-06T03:34:22.626Z,0.00
2018-05-06T03:35:22.626Z,0.00
2018-05-06T03:36:22.625Z,0.00
2018-05-06T03:37:22.628Z,0.00
2018-05-06T03:38:22.623Z,0.00
2018-05-06T03:39:22.625Z,0.00
2018-05-06T03:40:22.625Z,0.00
2018-05-06T03:41:22.625Z,0.00
2018-05-06T03:42:22.624Z,0.00
2018-05-06T03:43:22.624Z,0.00
2018-05-06T03:44:22.623Z,0.00
2018-05-06T03:45:22.623Z,0.00
2018-05-06T03:46:22.623Z,0.00
2018-05-06T03:47:22.624Z,0.00
2018-05-06T03:48:22.624Z,0.00
2018-05-06T03:49:22.627Z,0.00
2018-05-06T03:50:22.622Z,0.00
2018-05-06T03:51:22.622Z,0.00
2018-05-06T03:52:22.623Z,0.00
2018-05-06T03:53:22.620Z,0.00
2018-05-06T03:54:22.620Z,0.00
2018-05-06T03:55:22.622Z,0.00
2018-05-06T03:56:22.621Z,0.00
2018-05-06T03:57:22.619Z,0.00
2018-05-06T03:58:22.621Z,0.00
2018-05-06T03:59:22.621Z,0.00
2018-05-06T04:00:22.692Z,0.00
2018-05-06T04:01:22.620Z,0.00
2018-05-06T04:02:22.619Z,0.00
2018-05-06T04:03:22.618Z,0.00
2018-05-06T04:04:22.620Z,0.00
2018-05-06T04:05:22.618Z,0.00
2018-05-06T04:06:22.619Z,0.00
2018-05-06T04:07:22.619Z,0.00
2018-05-06T04:08:22.618Z,0.00
2018-05-06T04:09:22.618Z,0.00
2018-05-06T04:10:22.617Z,0.00
2018-05-06T04:11:22.616Z,0.00
2018-05-06T04:12:22.617Z,0.00
2018-05-06T04:13:22.618Z,0.00
2018-05-06T04:14:22.616Z,0.00
2018-05-06T04:15:22.616Z,0.00
2018-05-06T04:16:22.616Z,0.00
2018-05-06T04:17:22.613Z,0.00
2018-05-06T04:18:22.614Z,0.00
2018-05-06T04:19:22.614Z,0.00
2018-05-06T04:20:22.614Z,0.00
2018-05-06T04:21:22.617Z,0.00
2018-05-06T04:22:22.613Z,5.63
2018-05-06T04:23:22.614Z,5.63
2018-05-06T04:24:22.612Z,5.63
2018-05-06T04:25:22.611Z,5.63
2018-05-06T04:26:22.612Z,5.63
2018-05-06T04:27:22.612Z,5.63
2018-05-06T04:28:22.611Z,5.63
2018-05-06T04:29:22.610Z,5.63
2018-05-06T04:30:22.611Z,5.63
2018-05-06T04:31:22.610Z,5.63
2018-05-06T04:32:22.610Z,5.63
2018-05-06T04:33:22.609Z,5.63
2018-05-06T04:34:22.609Z,5.63
2018-05-06T04:35:22.611Z,5.63
2018-05-06T04:36:22.612Z,5.63
2018-05-06T04:37:22.607Z,5.63
2018-05-06T04:38:22.608Z,5.63
2018-05-06T04:39:22.608Z,5.63
2018-05-06T04:40:22.608Z,11.25
2018-05-06T04:41:22.608Z,11.25
2018-05-06T04:42:22.606Z,11.25
2018-05-06T04:43:22.606Z,11.25
2018-05-06T04:44:22.611Z,11.25
2018-05-06T04:45:22.605Z,11.25
2018-05-06T04:46:22.607Z,11.25
2018-05-06T04:47:22.607Z,11.25
2018-05-06T04:48:22.606Z,11.25
2018-05-06T04:49:22.607Z,11.25
2018-05-06T04:50:22.605Z,11.25
2018-05-06T04:51:22.607Z,11.25
2018-05-06T04:52:22.605Z,11.25
2018-05-06T04:53:22.605Z,11.25
2018-05-06T04:54:22.605Z,11.25
2018-05-06T04:55:22.606Z,16.88
2018-05-06T04:56:22.605Z,16.88
2018-05-06T04:57:22.604Z,16.88
2018-05-06T04:58:22.605Z,16.88
2018-05-06T04:59:22.604Z,16.88
2018-05-06T05:00:22.615Z,16.88
2018-05-06T05:01:22.603Z,16.88
2018-05-06T05:02:22.604Z,16.88
2018-05-06T05:03:22.609Z,16.88
2018-05-06T05:04:22.605Z,16.88
2018-05-06T05:05:22.603Z,16.88
2018-05-06T05:06:22.604Z,16.88
2018-05-06T05:07:22.604Z,16.88
2018-05-06T05:08:22.604Z,16.88
2018-05-06T05:09:22.603Z,16.88
2018-05-06T05:10:22.605Z,16.88
2018-05-06T05:11:22.603Z,16.88
2018-05-06T05:12:22.608Z,22.50
2018-05-06T05:13:22.608Z,22.50
2018-05-06T05:14:22.603Z,22.50
2018-05-06T05:15:22.604Z,22.50
2018-05-06T05:16:22.604Z,22.50
2018-05-06T05:17:22.604Z,28.13
2018-05-06T05:18:22.603Z,33.75
2018-05-06T05:19:22.602Z,33.75
2018-05-06T05:20:22.604Z,33.75
2018-05-06T05:21:22.603Z,39.38
2018-05-06T05:22:22.602Z,39.38
2018-05-06T05:23:22.603Z,39.38
2018-05-06T05:24:22.603Z,39.38
2018-05-06T05:25:22.601Z,39.38
2018-05-06T05:26:22.604Z,39.38
2018-05-06T05:27:22.602Z,39.38
2018-05-06T05:28:22.603Z,39.38
2018-05-06T05:29:22.605Z,39.38
2018-05-06T05:30:22.601Z,33.75
2018-05-06T05:31:22.602Z,33.75
2018-05-06T05:32:22.606Z,33.75
2018-05-06T05:33:22.600Z,33.75
2018-05-06T05:34:22.609Z,33.75
2018-05-06T05:35:22.603Z,33.75
2018-05-06T05:36:22.601Z,33.75
2018-05-06T05:37:22.602Z,33.75
2018-05-06T05:38:22.601Z,33.75
2018-05-06T05:39:22.600Z,33.75
2018-05-06T05:40:22.602Z,33.75
2018-05-06T05:41:22.600Z,33.75
2018-05-06T05:42:22.601Z,33.75
2018-05-06T05:43:22.601Z,33.75
2018-05-06T05:44:22.600Z,33.75
2018-05-06T05:45:22.600Z,33.75
2018-05-06T05:46:22.602Z,33.75
2018-05-06T05:47:22.599Z,33.75
2018-05-06T05:48:22.602Z,33.75
2018-05-06T05:49:22.600Z,33.75
2018-05-06T05:50:22.600Z,33.75
2018-05-06T05:51:22.601Z,33.75
2018-05-06T05:52:22.600Z,33.75
2018-05-06T05:53:22.599Z,33.75
2018-05-06T05:54:22.600Z,33.75
2018-05-06T05:55:22.600Z,33.75
2018-05-06T05:56:22.601Z,39.38
2018-05-06T05:57:22.599Z,33.75
2018-05-06T05:58:22.599Z,33.75
2018-05-06T05:59:22.601Z,33.75
2018-05-06T06:00:22.601Z,33.75
2018-05-06T06:01:22.608Z,33.75
2018-05-06T06:02:22.601Z,33.75
2018-05-06T06:03:22.600Z,33.75
2018-05-06T06:04:22.601Z,33.75
2018-05-06T06:05:22.599Z,33.75
2018-05-06T06:06:22.599Z,33.75
2018-05-06T06:07:22.601Z,33.75
2018-05-06T06:08:22.601Z,39.38
2018-05-06T06:09:22.599Z,39.38
2018-05-06T06:10:22.608Z,39.38
2018-05-06T06:11:22.600Z,39.38
2018-05-06T06:12:22.601Z,39.38
2018-05-06T06:13:22.600Z,33.75
2018-05-06T06:14:22.600Z,39.38
2018-05-06T06:15:22.599Z,39.38
2018-05-06T06:16:22.602Z,39.38
2018-05-06T06:17:22.601Z,39.38
2018-05-06T06:18:22.600Z,39.38
2018-05-06T06:19:22.599Z,39.38
2018-05-06T06:20:22.600Z,33.75
2018-05-06T06:21:22.604Z,33.75
2018-05-06T06:22:22.599Z,39.38
2018-05-06T06:23:22.599Z,39.38
2018-05-06T06:24:22.601Z,39.38
2018-05-06T06:25:22.599Z,45.00
2018-05-06T06:26:22.600Z,39.38
2018-05-06T06:27:22.601Z,45.00
2018-05-06T06:28:22.601Z,45.00
2018-05-06T06:29:22.600Z,45.00
2018-05-06T06:30:22.600Z,45.00
2018-05-06T06:31:22.599Z,45.00
2018-05-06T06:32:22.599Z,45.00
2018-05-06T06:33:22.599Z,45.00
2018-05-06T06:34:22.599Z,50.63
2018-05-06T06:35:22.600Z,50.63
2018-05-06T06:36:22.601Z,50.63
2018-05-06T06:37:22.599Z,50.63
2018-05-06T06:38:22.683Z,50.63
2018-05-06T06:39:22.601Z,50.63
2018-05-06T06:40:22.601Z,45.00
2018-05-06T06:41:22.599Z,45.00
2018-05-06T06:42:22.600Z,39.38
2018-05-06T06:43:22.600Z,45.00
2018-05-06T06:44:22.600Z,45.00
2018-05-06T06:45:22.599Z,50.63
2018-05-06T06:46:22.600Z,56.25
2018-05-06T06:47:22.600Z,56.25
2018-05-06T06:48:22.602Z,67.50
2018-05-06T06:49:22.602Z,67.50
2018-05-06T06:50:22.600Z,61.88
2018-05-06T06:51:22.600Z,56.25
2018-05-06T06:52:22.601Z,56.25
2018-05-06T06:53:22.599Z,56.25
2018-05-06T06:54:22.599Z,56.25
2018-05-06T06:55:22.599Z,56.25
2018-05-06T06:56:22.601Z,56.25
2018-05-06T06:57:22.600Z,56.25
2018-05-06T06:58:22.599Z,56.25
2018-05-06T06:59:22.600Z,56.25
2018-05-06T07:00:22.600Z,56.25
2018-05-06T07:01:22.599Z,61.88
2018-05-06T07:02:22.600Z,61.88
2018-05-06T07:03:22.600Z,61.88
2018-05-06T07:04:22.600Z,67.50
2018-05-06T07:05:22.603Z,67.50
2018-05-06T07:06:22.600Z,67.50
2018-05-06T07:07:22.601Z,67.50
2018-05-06T07:08:22.600Z,67.50
2018-05-06T07:09:22.600Z,67.50
2018-05-06T07:10:22.605Z,67.50
2018-05-06T07:11:22.667Z,67.50
2018-05-06T07:12:22.602Z,67.50
2018-05-06T07:13:22.601Z,78.75
2018-05-06T07:14:22.602Z,78.75
2018-05-06T07:15:22.606Z,67.50
2018-05-06T07:16:22.603Z,67.50
2018-05-06T07:17:22.601Z,61.88
2018-05-06T07:18:22.603Z,61.88
2018-05-06T07:19:22.664Z,61.88
2018-05-06T07:20:22.603Z,61.88
2018-05-06T07:21:22.604Z,56.25
2018-05-06T07:22:22.608Z,56.25
2018-05-06T07:23:22.603Z,56.25
2018-05-06T07:24:22.604Z,50.63
2018-05-06T07:25:22.604Z,56.25
2018-05-06T07:26:22.606Z,61.88
2018-05-06T07:27:22.606Z,67.50
2018-05-06T07:28:22.692Z,67.50
2018-05-06T07:29:22.607Z,67.50
2018-05-06T07:30:22.606Z,67.50
2018-05-06T07:31:22.609Z,67.50
2018-05-06T07:32:22.609Z,67.50
2018-05-06T07:33:22.609Z,67.50
2018-05-06T07:34:22.611Z,67.50
2018-05-06T07:35:22.611Z,67.50
2018-05-06T07:36:22.611Z,67.50
2018-05-06T07:37:22.611Z,67.50
2018-05-06T07:38:22.613Z,61.88
2018-05-06T07:39:22.614Z,61.88
2018-05-06T07:40:22.613Z,61.88
2018-05-06T07:41:22.695Z,61.88
2018-05-06T07:42:22.616Z,61.88
2018-05-06T07:43:22.616Z,56.25
2018-05-06T07:44:22.616Z,56.25
2018-05-06T07:45:22.617Z,56.25
2018-05-06T07:46:22.690Z,56.25
2018-05-06T07:47:22.621Z,56.25
2018-05-06T07:48:22.620Z,50.63
2018-05-06T07:49:22.618Z,50.63
2018-05-06T07:50:22.620Z,56.25
2018-05-06T07:51:22.622Z,50.63
2018-05-06T07:52:22.621Z,50.63
2018-05-06T07:53:22.622Z,50.63
2018-05-06T07:54:22.624Z,50.63
2018-05-06T07:55:22.622Z,50.63
2018-05-06T07:56:22.623Z,56.25
2018-05-06T07:57:22.623Z,56.25
2018-05-06T07:58:22.624Z,50.63
2018-05-06T07:59:22.625Z,50.63
2018-05-06T08:00:22.624Z,50.63
2018-05-06T08:01:22.626Z,56.25
2018-05-06T08:02:22.626Z,61.88
2018-05-06T08:03:22.626Z,61.88
2018-05-06T08:04:22.657Z,67.50
2018-05-06T08:05:22.627Z,67.50
2018-05-06T08:06:22.627Z,67.50
2018-05-06T08:07:22.629Z,67.50
2018-05-06T08:08:22.629Z,61.88
2018-05-06T08:09:22.629Z,61.88
2018-05-06T08:10:22.629Z,61.88
2018-05-06T08:11:22.630Z,61.88
2018-05-06T08:12:22.632Z,56.25
2018-05-06T08:13:22.630Z,56.25
2018-05-06T08:14:22.632Z,56.25
2018-05-06T08:15:22.636Z,56.25
2018-05-06T08:16:22.694Z,56.25
2018-05-06T08:17:22.668Z,56.25
2018-05-06T08:18:22.632Z,56.25
2018-05-06T08:19:22.633Z,56.25
2018-05-06T08:20:22.635Z,61.88
2018-05-06T08:21:22.639Z,61.88
2018-05-06T08:22:22.639Z,61.88
2018-05-06T08:23:22.891Z,67.50
2018-05-06T08:24:22.669Z,67.50
2018-05-06T08:25:22.636Z,67.50
2018-05-06T08:26:22.635Z,67.50
2018-05-06T08:27:22.640Z,67.50
2018-05-06T08:28:22.637Z,67.50
2018-05-06T08:29:22.637Z,67.50
2018-05-06T08:30:22.639Z,67.50
2018-05-06T08:31:23.238Z,67.50
2018-05-06T08:32:22.639Z,67.50
2018-05-06T08:33:22.640Z,67.50
2018-05-06T08:34:22.641Z,61.88
2018-05-06T08:35:22.642Z,67.50
2018-05-06T08:36:22.643Z,67.50
2018-05-06T08:37:22.642Z,67.50
2018-05-06T08:38:22.643Z,67.50
2018-05-06T08:39:22.643Z,67.50
2018-05-06T08:40:22.647Z,67.50
2018-05-06T08:41:22.644Z,67.50
2018-05-06T08:42:22.644Z,73.13
2018-05-06T08:43:22.646Z,73.13
2018-05-06T08:44:22.645Z,73.13
2018-05-06T08:45:22.645Z,78.75
2018-05-06T08:46:22.646Z,84.38
2018-05-06T08:47:22.648Z,90.00
2018-05-06T08:48:22.647Z,95.63
2018-05-06T08:49:22.671Z,95.63
2018-05-06T08:50:22.648Z,95.63
2018-05-06T08:51:22.654Z,90.00
2018-05-06T08:52:23.725Z,78.75
2018-05-06T08:53:22.651Z,84.38
2018-05-06T08:54:22.652Z,78.75
2018-05-06T08:55:22.685Z,84.38
2018-05-06T08:56:22.653Z,84.38
2018-05-06T08:57:22.653Z,84.38
2018-05-06T08:58:22.654Z,84.38
2018-05-06T08:59:22.656Z,78.75
2018-05-06T09:00:22.668Z,78.75
2018-05-06T09:01:22.656Z,78.75
2018-05-06T09:02:22.658Z,84.38
2018-05-06T09:03:22.916Z,84.38
2018-05-06T09:04:22.660Z,78.75
2018-05-06T09:05:22.664Z,78.75
2018-05-06T09:06:22.664Z,78.75
2018-05-06T09:07:22.664Z,78.75
2018-05-06T09:08:22.664Z,78.75
2018-05-06T09:09:22.665Z,84.38
2018-05-06T09:10:22.667Z,84.38
2018-05-06T09:11:22.668Z,84.38
2018-05-06T09:12:22.672Z,90.00
2018-05-06T09:13:22.668Z,90.00
2018-05-06T09:14:22.671Z,95.63
2018-05-06T09:15:22.672Z,95.63
2018-05-06T09:16:22.674Z,95.63
2018-05-06T09:17:22.675Z,95.63
2018-05-06T09:18:22.676Z,95.63
2018-05-06T09:19:22.677Z,95.63
2018-05-06T09:20:22.678Z,95.63
2018-05-06T09:21:23.121Z,101.25
2018-05-06T09:22:22.864Z,106.88
2018-05-06T09:23:22.681Z,112.50
2018-05-06T09:24:23.037Z,112.50
2018-05-06T09:25:23.060Z,118.13
2018-05-06T09:26:22.930Z,118.13
2018-05-06T09:27:22.686Z,123.75
2018-05-06T09:28:22.689Z,129.38
2018-05-06T09:29:22.689Z,135.00
2018-05-06T09:30:22.691Z,146.25
2018-05-06T09:31:22.693Z,157.50
2018-05-06T09:32:22.732Z,151.88
2018-05-06T09:33:22.694Z,151.88
2018-05-06T09:34:22.697Z,151.88
2018-05-06T09:35:22.697Z,157.50
2018-05-06T09:36:22.697Z,157.50
2018-05-06T09:37:22.700Z,146.25
2018-05-06T09:38:22.700Z,151.88
2018-05-06T09:39:22.704Z,151.88
2018-05-06T09:40:22.703Z,151.88
2018-05-06T09:41:22.934Z,157.50
2018-05-06T09:42:22.706Z,168.75
2018-05-06T09:43:22.709Z,163.13
2018-05-06T09:44:22.710Z,163.13
2018-05-06T09:45:22.711Z,157.50
2018-05-06T09:46:22.712Z,163.13
2018-05-06T09:47:22.715Z,163.13
2018-05-06T09:48:22.717Z,163.13
2018-05-06T09:49:22.719Z,151.88
2018-05-06T09:50:22.721Z,140.63
2018-05-06T09:51:22.722Z,140.63
2018-05-06T09:52:22.723Z,140.63
2018-05-06T09:53:22.724Z,129.38
2018-05-06T09:54:22.728Z,123.75
2018-05-06T09:55:22.729Z,112.50
2018-05-06T09:56:22.732Z,112.50
2018-05-06T09:57:22.733Z,112.50
2018-05-06T09:58:22.736Z,123.75
2018-05-06T09:59:22.756Z,135.00
2018-05-06T10:00:22.743Z,140.63
2018-05-06T10:01:22.740Z,135.00
2018-05-06T10:02:22.741Z,123.75
2018-05-06T10:03:22.742Z,123.75
2018-05-06T10:04:23.195Z,129.38
2018-05-06T10:05:23.240Z,135.00
2018-05-06T10:06:22.749Z,129.38
2018-05-06T10:07:22.754Z,123.75
2018-05-06T10:08:22.835Z,118.13
2018-05-06T10:09:22.753Z,123.75
2018-05-06T10:10:23.813Z,135.00
2018-05-06T10:11:22.758Z,174.38
2018-05-06T10:12:22.758Z,376.88
2018-05-06T10:13:22.761Z,348.75
2018-05-06T10:14:22.763Z,1096.88
2018-05-06T10:15:22.765Z,506.25
2018-05-06T10:16:22.768Z,388.13
2018-05-06T10:17:22.769Z,354.38
2018-05-06T10:18:22.771Z,776.25
2018-05-06T10:19:22.775Z,540.00
2018-05-06T10:20:22.779Z,798.75
2018-05-06T10:21:22.780Z,1063.13
2018-05-06T10:22:22.869Z,838.13
2018-05-06T10:23:22.792Z,1029.38
2018-05-06T10:24:22.796Z,1057.50
2018-05-06T10:25:22.801Z,793.13
2018-05-06T10:26:22.805Z,877.50
2018-05-06T10:27:22.814Z,995.63
2018-05-06T10:28:22.818Z,1029.38
2018-05-06T10:29:22.825Z,995.63
2018-05-06T10:30:22.829Z,641.25
2018-05-06T10:31:22.836Z,675.00
2018-05-06T10:32:22.842Z,607.50
2018-05-06T10:33:22.848Z,500.63
2018-05-06T10:34:22.855Z,787.50
2018-05-06T10:35:23.391Z,444.38
2018-05-06T10:36:23.375Z,973.13
2018-05-06T10:37:22.875Z,495.00
2018-05-06T10:38:22.888Z,635.63
2018-05-06T10:39:22.888Z,742.50
2018-05-06T10:40:22.896Z,748.13
2018-05-06T10:41:22.901Z,967.50
2018-05-06T10:42:22.932Z,433.13
2018-05-06T10:43:22.941Z,787.50
2018-05-06T10:44:23.032Z,551.25
2018-05-06T10:45:22.929Z,331.88
2018-05-06T10:46:22.941Z,855.00
2018-05-06T10:47:22.944Z,804.38
2018-05-06T10:48:22.952Z,348.75
2018-05-06T10:49:23.042Z,292.50
2018-05-06T10:50:22.995Z,382.50
2018-05-06T10:51:22.973Z,444.38
2018-05-06T10:52:22.983Z,258.75
2018-05-06T10:53:22.990Z,230.63
2018-05-06T10:54:22.994Z,258.75
2018-05-06T10:55:23.001Z,500.63
2018-05-06T10:56:23.008Z,641.25
2018-05-06T10:57:23.013Z,725.63
2018-05-06T10:58:23.024Z,568.13
2018-05-06T10:59:23.028Z,787.50
2018-05-06T11:00:23.035Z,450.00
2018-05-06T11:01:23.040Z,292.50
2018-05-06T11:02:23.048Z,354.38
2018-05-06T11:03:23.056Z,230.63
2018-05-06T11:04:23.063Z,652.50
2018-05-06T11:05:23.073Z,703.13
2018-05-06T11:06:23.081Z,607.50
2018-05-06T11:07:23.085Z,658.13
2018-05-06T11:08:23.092Z,545.63
2018-05-06T11:09:23.098Z,596.25
2018-05-06T11:10:23.123Z,669.38
2018-05-06T11:11:23.115Z,556.88
2018-05-06T11:12:23.122Z,607.50
2018-05-06T11:13:23.129Z,579.38
2018-05-06T11:14:23.136Z,517.50
2018-05-06T11:15:23.145Z,326.25
2018-05-06T11:16:23.154Z,624.38
2018-05-06T11:17:23.159Z,624.38
2018-05-06T11:18:23.167Z,635.63
2018-05-06T11:19:23.177Z,641.25
2018-05-06T11:20:23.188Z,635.63
2018-05-06T11:21:23.193Z,596.25
2018-05-06T11:22:23.225Z,596.25
2018-05-06T11:23:23.212Z,601.88
2018-05-06T11:24:23.220Z,601.88
2018-05-06T11:25:23.229Z,331.88
2018-05-06T11:26:23.294Z,219.38
2018-05-06T11:27:23.247Z,635.63
2018-05-06T11:28:23.256Z,540.00
2018-05-06T11:29:23.264Z,495.00
2018-05-06T11:30:23.274Z,630.00
2018-05-06T11:31:23.284Z,376.88
2018-05-06T11:32:23.293Z,253.13
2018-05-06T11:33:23.319Z,686.25
2018-05-06T11:34:23.310Z,725.63
2018-05-06T11:35:23.325Z,832.50
2018-05-06T11:36:23.329Z,523.13
2018-05-06T11:37:23.336Z,489.38
2018-05-06T11:38:23.344Z,315.00
2018-05-06T11:39:23.355Z,315.00
2018-05-06T11:40:23.363Z,956.25
2018-05-06T11:41:23.370Z,1096.88
2018-05-06T11:42:23.381Z,1445.63
2018-05-06T11:43:23.388Z,1136.25
2018-05-06T11:44:23.396Z,1198.13
2018-05-06T11:45:23.406Z,1136.25
2018-05-06T11:46:23.414Z,1012.50
2018-05-06T11:47:23.422Z,888.75
2018-05-06T11:48:23.432Z,742.50
2018-05-06T11:49:23.442Z,641.25
2018-05-06T11:50:23.457Z,523.13
2018-05-06T11:51:23.703Z,478.13
2018-05-06T11:52:23.470Z,461.25
2018-05-06T11:53:23.476Z,450.00
2018-05-06T11:54:23.485Z,450.00
2018-05-06T11:55:23.497Z,433.13
2018-05-06T11:56:23.588Z,438.75
2018-05-06T11:57:23.512Z,427.50
2018-05-06T11:58:23.522Z,427.50
2018-05-06T11:59:23.531Z,421.88
2018-05-06T12:00:23.539Z,421.88
2018-05-06T12:01:23.546Z,416.25
2018-05-06T12:02:24.134Z,416.25
2018-05-06T12:03:23.565Z,416.25
2018-05-06T12:04:23.574Z,416.25
2018-05-06T12:05:23.582Z,427.50
2018-05-06T12:06:23.591Z,427.50
2018-05-06T12:07:23.599Z,427.50
2018-05-06T12:08:23.608Z,427.50
2018-05-06T12:09:23.615Z,421.88
2018-05-06T12:10:23.625Z,416.25
2018-05-06T12:11:23.636Z,421.88
2018-05-06T12:12:23.648Z,438.75
2018-05-06T12:13:23.652Z,450.00
2018-05-06T12:14:23.660Z,472.50
2018-05-06T12:15:23.669Z,472.50
2018-05-06T12:16:23.679Z,466.88
2018-05-06T12:17:23.685Z,466.88
2018-05-06T12:18:23.699Z,466.88
2018-05-06T12:19:23.705Z,466.88
2018-05-06T12:20:23.714Z,478.13
2018-05-06T12:21:23.724Z,483.75
2018-05-06T12:22:23.731Z,478.13
2018-05-06T12:23:23.740Z,466.88
2018-05-06T12:24:23.748Z,466.88
2018-05-06T12:25:23.756Z,455.63
2018-05-06T12:26:23.764Z,455.63
2018-05-06T12:27:23.774Z,461.25
2018-05-06T12:28:23.783Z,444.38
2018-05-06T12:29:23.791Z,444.38
2018-05-06T12:30:23.802Z,438.75
2018-05-06T12:31:23.810Z,427.50
2018-05-06T12:32:23.819Z,427.50
2018-05-06T12:33:23.825Z,427.50
2018-05-06T12:34:23.835Z,410.63
2018-05-06T12:35:23.843Z,416.25
2018-05-06T12:36:23.853Z,438.75
2018-05-06T12:37:23.861Z,444.38
2018-05-06T12:38:23.870Z,438.75
2018-05-06T12:39:23.879Z,427.50
2018-05-06T12:40:23.888Z,433.13
2018-05-06T12:41:23.896Z,416.25
2018-05-06T12:42:23.904Z,410.63
2018-05-06T12:43:23.991Z,410.63
2018-05-06T12:44:23.969Z,405.00
2018-05-06T12:45:23.929Z,405.00
2018-05-06T12:46:23.939Z,399.38
2018-05-06T12:47:23.948Z,393.75
2018-05-06T12:48:23.957Z,388.13
2018-05-06T12:49:23.974Z,388.13
2018-05-06T12:50:23.972Z,382.50
2018-05-06T12:51:23.983Z,382.50
2018-05-06T12:52:23.990Z,371.25
2018-05-06T12:53:23.999Z,371.25
2018-05-06T12:54:24.008Z,360.00
2018-05-06T12:55:24.061Z,354.38